Larvik — C6VC2 — position and weather

sailwx.info

Track history (hours):
 
Tides and Currents Weather Stations Pressure Air Temp Water Temp Dewpoint Dewpoint Depression Visibility Wind Speed Wind Dir Waves Ship Positions

Larvik

Last reported at 2015-May-18 05:14 UTC. Time now 2015-May-27 21:58 UTC.
Position N 47°18' W 002°06'.
Warning: this ship's position is 9 days out of date.

Length 214 m; draft 7.3 m.

Type: Tanker. MMSI: 308371000.

Date/timePositionNaut miles runAvg speedWind from/ knotsBaromVisibWave heightAir tempDewpointWater temp
2015-May-18 05:14N 47°18' W 002°06'0 0.0
2015-May-18 02:29N 47°18' W 002°06'0 0.0
2015-May-18 01:29N 47°18' W 002°06'0 0.0
2015-May-18 00:26N 47°18' W 002°06'0 0.0
2015-May-17 23:32N 47°18' W 002°06'0 0.0
2015-May-17 21:14N 47°18' W 002°06'0 0.0
2015-May-17 20:14N 47°18' W 002°06'17 1.9
2015-May-17 11:21N 47°06' W 002°23'9 7.2
2015-May-17 10:09N 47°01' W 002°34'11 5.8
2015-May-17 08:21N 46°59' W 002°49'6 7.8
2015-May-17 07:30N 46°58' W 002°59'1411.4
2015-May-17 06:16N 46°57' W 003°19'2513.3
2015-May-17 04:21N 46°54' W 003°56'71614.0
2015-May-15 01:20N 44°17' W 020°34'1714.0
2015-May-15 00:07N 44°10' W 020°55'1213.7
2015-May-14 23:12N 44°04' W 021°11'4114.3
2015-May-14 20:22N 43°45' W 022°00'40414.0
2015-May-13 15:27N 40°43' W 030°07'1213.9
2015-May-13 14:33N 40°38' W 030°22'1714.0
2015-May-13 13:22N 40°30' W 030°41'1214.2
2015-May-13 12:32N 40°25' W 030°55'1414.1
2015-May-13 11:33N 40°19' W 031°11'2014.3
2015-May-13 10:11N 40°10' W 031°35'914.1
2015-May-13 09:32N 40°06' W 031°45'1514.0
2015-May-13 08:29N 39°59' W 032°02'  
Track history (hours):
 
Tides and Currents Weather Stations Pressure Air Temp Water Temp Dewpoint Dewpoint Depression Visibility Wind Speed Wind Dir Waves Ship Positions

Larvik

Last reported at 2015-May-18 05:14 UTC. Time now 2015-May-27 21:58 UTC.
Position N 47°18' W 002°06'.
Warning: this ship's position is 9 days out of date.

Length 214 m; draft 7.3 m.

Type: Tanker. MMSI: 308371000.

Date/timePositionNaut miles runAvg speedWind from/ knotsBaromVisibWave heightAir tempDewpointWater temp
2015-May-18 05:14N 47°18' W 002°06'0 0.0
2015-May-18 02:29N 47°18' W 002°06'0 0.0
2015-May-18 01:29N 47°18' W 002°06'0 0.0
2015-May-18 00:26N 47°18' W 002°06'0 0.0
2015-May-17 23:32N 47°18' W 002°06'0 0.0
2015-May-17 21:14N 47°18' W 002°06'0 0.0
2015-May-17 20:14N 47°18' W 002°06'17 1.9
2015-May-17 11:21N 47°06' W 002°23'9 7.2
2015-May-17 10:09N 47°01' W 002°34'11 5.8
2015-May-17 08:21N 46°59' W 002°49'6 7.8
2015-May-17 07:30N 46°58' W 002°59'1411.4
2015-May-17 06:16N 46°57' W 003°19'2513.3
2015-May-17 04:21N 46°54' W 003°56'71614.0
2015-May-15 01:20N 44°17' W 020°34'1714.0
2015-May-15 00:07N 44°10' W 020°55'1213.7
2015-May-14 23:12N 44°04' W 021°11'4114.3
2015-May-14 20:22N 43°45' W 022°00'40414.0
2015-May-13 15:27N 40°43' W 030°07'1213.9
2015-May-13 14:33N 40°38' W 030°22'1714.0
2015-May-13 13:22N 40°30' W 030°41'1214.2
2015-May-13 12:32N 40°25' W 030°55'1414.1
2015-May-13 11:33N 40°19' W 031°11'2014.3
2015-May-13 10:11N 40°10' W 031°35'914.1
2015-May-13 09:32N 40°06' W 031°45'1514.0
2015-May-13 08:29N 39°59' W 032°02'  

Dump ship's entire track history